sensor_id;sensor_type;location;lat;lon;timestamp;temperature;humidity
13470;DHT22;6807;48.682;9.032;2023-03-25T00:03:04;6.70;99.90
13470;DHT22;6807;48.682;9.032;2023-03-25T00:05:31;6.70;99.90
13470;DHT22;6807;48.682;9.032;2023-03-25T00:08:01;6.30;99.90
13470;DHT22;6807;48.682;9.032;2023-03-25T00:10:28;6.60;99.90
13470;DHT22;6807;48.682;9.032;2023-03-25T00:12:57;6.50;99.90
13470;DHT22;6807;48.682;9.032;2023-03-25T00:15:29;6.60;99.90
13470;DHT22;6807;48.682;9.032;2023-03-25T00:17:58;6.50;99.90
13470;DHT22;6807;48.682;9.032;2023-03-25T00:25:21;6.20;99.90
13470;DHT22;6807;48.682;9.032;2023-03-25T00:27:49;6.20;99.90
13470;DHT22;6807;48.682;9.032;2023-03-25T00:30:17;6.10;99.90
13470;DHT22;6807;48.682;9.032;2023-03-25T00:32:44;6.20;99.90
13470;DHT22;6807;48.682;9.032;2023-03-25T00:40:12;6.40;99.90
13470;DHT22;6807;48.682;9.032;2023-03-25T00:42:43;6.40;99.90
13470;DHT22;6807;48.682;9.032;2023-03-25T00:45:14;6.60;96.80
13470;DHT22;6807;48.682;9.032;2023-03-25T00:50:12;6.50;99.90
13470;DHT22;6807;48.682;9.032;2023-03-25T00:52:39;6.40;89.50
13470;DHT22;6807;48.682;9.032;2023-03-25T00:55:07;6.30;99.90
13470;DHT22;6807;48.682;9.032;2023-03-25T00:57:35;6.40;99.90
13470;DHT22;6807;48.682;9.032;2023-03-25T01:00:05;6.30;99.90
13470;DHT22;6807;48.682;9.032;2023-03-25T01:02:33;6.20;99.90
13470;DHT22;6807;48.682;9.032;2023-03-25T01:07:28;6.60;99.90
13470;DHT22;6807;48.682;9.032;2023-03-25T01:09:57;6.10;99.90
13470;DHT22;6807;48.682;9.032;2023-03-25T01:12:25;6.00;99.90
13470;DHT22;6807;48.682;9.032;2023-03-25T01:14:52;5.80;99.90
13470;DHT22;6807;48.682;9.032;2023-03-25T01:17:23;5.90;99.90
13470;DHT22;6807;48.682;9.032;2023-03-25T01:22:20;6.20;99.90
13470;DHT22;6807;48.682;9.032;2023-03-25T01:27:15;6.00;99.90
13470;DHT22;6807;48.682;9.032;2023-03-25T01:29:43;6.20;99.90
13470;DHT22;6807;48.682;9.032;2023-03-25T01:32:09;5.90;99.90
13470;DHT22;6807;48.682;9.032;2023-03-25T01:34:38;6.30;99.90
13470;DHT22;6807;48.682;9.032;2023-03-25T01:42:03;6.50;91.10
13470;DHT22;6807;48.682;9.032;2023-03-25T01:47:49;6.40;99.90
13470;DHT22;6807;48.682;9.032;2023-03-25T01:50:20;6.30;99.90
13470;DHT22;6807;48.682;9.032;2023-03-25T01:52:50;6.10;99.90
13470;DHT22;6807;48.682;9.032;2023-03-25T01:57:46;6.10;99.90
13470;DHT22;6807;48.682;9.032;2023-03-25T02:00:17;6.10;99.90
13470;DHT22;6807;48.682;9.032;2023-03-25T02:02:45;6.00;99.90
13470;DHT22;6807;48.682;9.032;2023-03-25T02:05:19;5.90;99.90
13470;DHT22;6807;48.682;9.032;2023-03-25T02:07:50;5.90;99.90
13470;DHT22;6807;48.682;9.032;2023-03-25T02:10:18;5.80;99.90
13470;DHT22;6807;48.682;9.032;2023-03-25T02:12:46;5.60;99.90
13470;DHT22;6807;48.682;9.032;2023-03-25T02:15:14;5.80;99.90
13470;DHT22;6807;48.682;9.032;2023-03-25T02:17:58;5.70;99.90
13470;DHT22;6807;48.682;9.032;2023-03-25T02:24:03;5.80;1.00
13470;DHT22;6807;48.682;9.032;2023-03-25T02:32:45;6.00;1.00
13470;DHT22;6807;48.682;9.032;2023-03-25T02:35:31;6.10;1.00
13470;DHT22;6807;48.682;9.032;2023-03-25T02:38:24;6.00;1.00
13470;DHT22;6807;48.682;9.032;2023-03-25T02:40:56;6.20;1.00
13470;DHT22;6807;48.682;9.032;2023-03-25T02:43:30;6.10;1.00
13470;DHT22;6807;48.682;9.032;2023-03-25T02:46:02;6.20;99.90
13470;DHT22;6807;48.682;9.032;2023-03-25T02:48:34;6.20;99.90
13470;DHT22;6807;48.682;9.032;2023-03-25T02:51:06;6.10;99.90
13470;DHT22;6807;48.682;9.032;2023-03-25T02:53:38;6.20;99.90
13470;DHT22;6807;48.682;9.032;2023-03-25T02:56:08;6.10;99.90
13470;DHT22;6807;48.682;9.032;2023-03-25T02:58:38;6.10;35.60
13470;DHT22;6807;48.682;9.032;2023-03-25T03:01:06;6.00;1.00
13470;DHT22;6807;48.682;9.032;2023-03-25T03:03:35;5.90;1.00
13470;DHT22;6807;48.682;9.032;2023-03-25T03:06:04;5.80;1.00
13470;DHT22;6807;48.682;9.032;2023-03-25T03:08:43;5.60;1.00
13470;DHT22;6807;48.682;9.032;2023-03-25T03:11:18;5.30;1.00
13470;DHT22;6807;48.682;9.032;2023-03-25T03:14:06;5.50;59.30
13470;DHT22;6807;48.682;9.032;2023-03-25T03:16:44;5.40;81.70
13470;DHT22;6807;48.682;9.032;2023-03-25T03:19:24;5.40;99.90
13470;DHT22;6807;48.682;9.032;2023-03-25T03:21:59;5.30;99.90
13470;DHT22;6807;48.682;9.032;2023-03-25T03:24:31;5.30;99.90
13470;DHT22;6807;48.682;9.032;2023-03-25T03:27:03;5.20;99.90
13470;DHT22;6807;48.682;9.032;2023-03-25T03:29:36;5.20;99.90
13470;DHT22;6807;48.682;9.032;2023-03-25T03:32:07;5.10;99.90
13470;DHT22;6807;48.682;9.032;2023-03-25T03:34:38;5.20;99.90
13470;DHT22;6807;48.682;9.032;2023-03-25T03:37:14;5.20;99.90
13470;DHT22;6807;48.682;9.032;2023-03-25T03:39:45;5.10;99.90
13470;DHT22;6807;48.682;9.032;2023-03-25T03:42:16;5.10;99.90
13470;DHT22;6807;48.682;9.032;2023-03-25T03:44:49;5.10;99.90
13470;DHT22;6807;48.682;9.032;2023-03-25T03:47:22;4.90;99.90
13470;DHT22;6807;48.682;9.032;2023-03-25T03:49:55;5.10;99.90
13470;DHT22;6807;48.682;9.032;2023-03-25T03:52:26;5.10;99.90
13470;DHT22;6807;48.682;9.032;2023-03-25T03:55:00;5.10;99.90
13470;DHT22;6807;48.682;9.032;2023-03-25T03:57:31;4.90;1.00
13470;DHT22;6807;48.682;9.032;2023-03-25T04:00:03;5.10;99.90
13470;DHT22;6807;48.682;9.032;2023-03-25T04:02:36;5.00;99.90
13470;DHT22;6807;48.682;9.032;2023-03-25T04:05:05;5.00;99.90
13470;DHT22;6807;48.682;9.032;2023-03-25T04:07:36;4.90;99.90
13470;DHT22;6807;48.682;9.032;2023-03-25T04:10:10;4.90;99.90
13470;DHT22;6807;48.682;9.032;2023-03-25T04:12:41;5.00;99.90
13470;DHT22;6807;48.682;9.032;2023-03-25T04:15:10;4.90;99.90
13470;DHT22;6807;48.682;9.032;2023-03-25T04:17:37;5.00;99.90
13470;DHT22;6807;48.682;9.032;2023-03-25T04:20:05;5.10;99.90
13470;DHT22;6807;48.682;9.032;2023-03-25T04:22:34;5.10;99.90
13470;DHT22;6807;48.682;9.032;2023-03-25T04:25:04;5.10;99.90
13470;DHT22;6807;48.682;9.032;2023-03-25T04:27:32;5.00;99.90
13470;DHT22;6807;48.682;9.032;2023-03-25T04:30:03;4.70;99.90
13470;DHT22;6807;48.682;9.032;2023-03-25T04:34:57;4.80;99.90
13470;DHT22;6807;48.682;9.032;2023-03-25T04:37:24;4.80;99.90
13470;DHT22;6807;48.682;9.032;2023-03-25T04:39:52;4.50;99.90
13470;DHT22;6807;48.682;9.032;2023-03-25T04:42:20;4.60;1.00
13470;DHT22;6807;48.682;9.032;2023-03-25T04:44:51;4.50;1.00
13470;DHT22;6807;48.682;9.032;2023-03-25T04:47:20;4.40;1.00
13470;DHT22;6807;48.682;9.032;2023-03-25T04:49:48;4.50;1.00
13470;DHT22;6807;48.682;9.032;2023-03-25T04:52:15;4.50;1.00
13470;DHT22;6807;48.682;9.032;2023-03-25T04:57:11;4.70;99.90
13470;DHT22;6807;48.682;9.032;2023-03-25T04:59:37;4.80;99.90
13470;DHT22;6807;48.682;9.032;2023-03-25T05:02:06;4.80;99.90
13470;DHT22;6807;48.682;9.032;2023-03-25T05:07:06;4.50;99.90
13470;DHT22;6807;48.682;9.032;2023-03-25T05:09:34;4.60;99.90
13470;DHT22;6807;48.682;9.032;2023-03-25T05:12:01;4.60;99.90
13470;DHT22;6807;48.682;9.032;2023-03-25T05:19:25;7.70;99.90
13470;DHT22;6807;48.682;9.032;2023-03-25T05:21:53;5.80;99.90
13470;DHT22;6807;48.682;9.032;2023-03-25T05:24:21;5.20;99.90
13470;DHT22;6807;48.682;9.032;2023-03-25T05:26:49;5.10;99.90
13470;DHT22;6807;48.682;9.032;2023-03-25T05:29:16;5.20;99.90
13470;DHT22;6807;48.682;9.032;2023-03-25T05:31:45;5.30;95.90
13470;DHT22;6807;48.682;9.032;2023-03-25T05:36:42;5.40;99.90
13470;DHT22;6807;48.682;9.032;2023-03-25T05:44:05;5.40;99.90
13470;DHT22;6807;48.682;9.032;2023-03-25T05:51:27;5.60;78.30
13470;DHT22;6807;48.682;9.032;2023-03-25T05:53:59;5.70;99.90
13470;DHT22;6807;48.682;9.032;2023-03-25T05:56:26;6.10;99.90
13470;DHT22;6807;48.682;9.032;2023-03-25T06:06:16;6.10;29.80
13470;DHT22;6807;48.682;9.032;2023-03-25T06:08:48;6.10;1.00
13470;DHT22;6807;48.682;9.032;2023-03-25T06:11:17;6.10;25.40
13470;DHT22;6807;48.682;9.032;2023-03-25T06:13:46;6.20;1.00
13470;DHT22;6807;48.682;9.032;2023-03-25T06:16:16;3.50;1.00
13470;DHT22;6807;48.682;9.032;2023-03-25T06:21:16;6.40;1.00
13470;DHT22;6807;48.682;9.032;2023-03-25T06:26:10;6.30;1.00
13470;DHT22;6807;48.682;9.032;2023-03-25T06:28:38;6.60;1.00
13470;DHT22;6807;48.682;9.032;2023-03-25T06:31:11;7.00;1.00
13470;DHT22;6807;48.682;9.032;2023-03-25T06:36:06;7.10;1.00
13470;DHT22;6807;48.682;9.032;2023-03-25T06:41:01;6.90;1.00
13470;DHT22;6807;48.682;9.032;2023-03-25T06:45:56;7.90;99.90
13470;DHT22;6807;48.682;9.032;2023-03-25T06:48:24;8.30;99.90
13470;DHT22;6807;48.682;9.032;2023-03-25T06:50:51;8.50;99.90
13470;DHT22;6807;48.682;9.032;2023-03-25T06:55:46;8.90;99.90
13470;DHT22;6807;48.682;9.032;2023-03-25T06:58:14;8.30;99.90
13470;DHT22;6807;48.682;9.032;2023-03-25T07:03:10;8.70;99.90
13470;DHT22;6807;48.682;9.032;2023-03-25T07:08:04;9.10;99.90
13470;DHT22;6807;48.682;9.032;2023-03-25T07:12:58;8.80;99.90
13470;DHT22;6807;48.682;9.032;2023-03-25T07:15:25;8.50;99.90
13470;DHT22;6807;48.682;9.032;2023-03-25T07:17:58;8.00;99.90
13470;DHT22;6807;48.682;9.032;2023-03-25T07:20:26;8.00;99.90
13470;DHT22;6807;48.682;9.032;2023-03-25T07:25:21;8.60;99.90
13470;DHT22;6807;48.682;9.032;2023-03-25T07:27:48;8.10;99.90
13470;DHT22;6807;48.682;9.032;2023-03-25T07:30:15;8.10;99.90
13470;DHT22;6807;48.682;9.032;2023-03-25T07:32:46;8.20;99.90
13470;DHT22;6807;48.682;9.032;2023-03-25T07:35:13;7.60;99.90
13470;DHT22;6807;48.682;9.032;2023-03-25T07:37:42;8.00;99.90
13470;DHT22;6807;48.682;9.032;2023-03-25T07:40:09;8.90;99.90
13470;DHT22;6807;48.682;9.032;2023-03-25T07:42:36;9.40;99.90
13470;DHT22;6807;48.682;9.032;2023-03-25T07:45:04;9.90;1.00
13470;DHT22;6807;48.682;9.032;2023-03-25T07:47:31;9.90;1.00
13470;DHT22;6807;48.682;9.032;2023-03-25T07:52:25;10.80;1.00
13470;DHT22;6807;48.682;9.032;2023-03-25T07:54:54;11.30;1.00
13470;DHT22;6807;48.682;9.032;2023-03-25T07:57:21;11.50;1.00
13470;DHT22;6807;48.682;9.032;2023-03-25T07:59:48;11.90;1.00
13470;DHT22;6807;48.682;9.032;2023-03-25T08:02:15;11.40;1.00
13470;DHT22;6807;48.682;9.032;2023-03-25T08:04:42;10.90;1.00
13470;DHT22;6807;48.682;9.032;2023-03-25T08:09:36;9.90;1.00
13470;DHT22;6807;48.682;9.032;2023-03-25T08:12:04;10.90;1.00
13470;DHT22;6807;48.682;9.032;2023-03-25T08:21:53;8.70;1.00
13470;DHT22;6807;48.682;9.032;2023-03-25T08:26:49;7.60;99.90
13470;DHT22;6807;48.682;9.032;2023-03-25T08:29:17;6.90;1.00
13470;DHT22;6807;48.682;9.032;2023-03-25T08:31:45;7.10;1.00
13470;DHT22;6807;48.682;9.032;2023-03-25T08:34:17;6.80;1.00
13470;DHT22;6807;48.682;9.032;2023-03-25T08:39:12;7.00;99.90
13470;DHT22;6807;48.682;9.032;2023-03-25T08:41:42;7.20;98.30
13470;DHT22;6807;48.682;9.032;2023-03-25T08:44:09;7.40;99.90
13470;DHT22;6807;48.682;9.032;2023-03-25T08:46:38;7.40;99.90
13470;DHT22;6807;48.682;9.032;2023-03-25T08:56:27;7.10;99.90
13470;DHT22;6807;48.682;9.032;2023-03-25T09:01:21;6.90;99.90
13470;DHT22;6807;48.682;9.032;2023-03-25T09:03:50;6.50;99.90
13470;DHT22;6807;48.682;9.032;2023-03-25T09:06:17;6.70;99.90
13470;DHT22;6807;48.682;9.032;2023-03-25T09:11:11;6.90;99.90
13470;DHT22;6807;48.682;9.032;2023-03-25T09:13:40;7.00;99.90
13470;DHT22;6807;48.682;9.032;2023-03-25T09:16:08;7.00;99.90
13470;DHT22;6807;48.682;9.032;2023-03-25T09:21:04;7.00;99.90
13470;DHT22;6807;48.682;9.032;2023-03-25T09:26:01;7.50;99.90
13470;DHT22;6807;48.682;9.032;2023-03-25T09:30:55;8.10;99.90
13470;DHT22;6807;48.682;9.032;2023-03-25T09:35:52;8.70;99.90
13470;DHT22;6807;48.682;9.032;2023-03-25T09:38:20;8.70;54.30
13470;DHT22;6807;48.682;9.032;2023-03-25T09:43:31;8.60;1.00
13470;DHT22;6807;48.682;9.032;2023-03-25T09:46:03;8.70;1.00
13470;DHT22;6807;48.682;9.032;2023-03-25T09:48:35;9.00;1.00
13470;DHT22;6807;48.682;9.032;2023-03-25T09:51:40;9.00;1.00
13470;DHT22;6807;48.682;9.032;2023-03-25T09:57:29;9.70;99.90
13470;DHT22;6807;48.682;9.032;2023-03-25T09:59:59;10.20;1.00
13470;DHT22;6807;48.682;9.032;2023-03-25T10:02:33;9.90;99.90
13470;DHT22;6807;48.682;9.032;2023-03-25T10:05:19;9.40;99.90
13470;DHT22;6807;48.682;9.032;2023-03-25T10:08:00;9.40;99.90
13470;DHT22;6807;48.682;9.032;2023-03-25T10:10:35;9.70;99.90
13470;DHT22;6807;48.682;9.032;2023-03-25T10:13:09;10.70;99.90
13470;DHT22;6807;48.682;9.032;2023-03-25T10:15:42;10.60;42.00
13470;DHT22;6807;48.682;9.032;2023-03-25T10:18:28;12.00;4.30
13470;DHT22;6807;48.682;9.032;2023-03-25T10:21:03;12.00;9.60
13470;DHT22;6807;48.682;9.032;2023-03-25T10:23:39;12.20;1.00
13470;DHT22;6807;48.682;9.032;2023-03-25T10:26:11;12.40;1.00
13470;DHT22;6807;48.682;9.032;2023-03-25T10:28:48;13.70;1.00
13470;DHT22;6807;48.682;9.032;2023-03-25T10:31:25;13.70;1.00
13470;DHT22;6807;48.682;9.032;2023-03-25T10:33:58;13.50;1.00
13470;DHT22;6807;48.682;9.032;2023-03-25T10:36:31;12.50;1.00
13470;DHT22;6807;48.682;9.032;2023-03-25T10:39:10;12.40;1.00
13470;DHT22;6807;48.682;9.032;2023-03-25T10:41:51;11.50;1.00
13470;DHT22;6807;48.682;9.032;2023-03-25T10:44:25;12.30;1.00
13470;DHT22;6807;48.682;9.032;2023-03-25T10:47:00;11.60;1.00
13470;DHT22;6807;48.682;9.032;2023-03-25T10:49:33;13.50;1.00
13470;DHT22;6807;48.682;9.032;2023-03-25T10:54:31;11.40;1.00
13470;DHT22;6807;48.682;9.032;2023-03-25T10:57:04;11.40;1.00
13470;DHT22;6807;48.682;9.032;2023-03-25T10:59:37;11.10;1.00
13470;DHT22;6807;48.682;9.032;2023-03-25T11:02:14;10.60;1.00
13470;DHT22;6807;48.682;9.032;2023-03-25T11:04:43;11.10;1.00
13470;DHT22;6807;48.682;9.032;2023-03-25T11:07:17;11.20;1.00
13470;DHT22;6807;48.682;9.032;2023-03-25T11:12:19;13.60;1.00
13470;DHT22;6807;48.682;9.032;2023-03-25T11:14:56;14.00;1.00
13470;DHT22;6807;48.682;9.032;2023-03-25T11:17:39;14.60;1.00
13470;DHT22;6807;48.682;9.032;2023-03-25T11:20:18;14.30;1.00
13470;DHT22;6807;48.682;9.032;2023-03-25T11:23:29;15.40;99.90
13470;DHT22;6807;48.682;9.032;2023-03-25T11:26:40;14.10;99.90
13470;DHT22;6807;48.682;9.032;2023-03-25T11:29:32;11.80;99.90
13470;DHT22;6807;48.682;9.032;2023-03-25T11:35:46;13.60;99.90
13470;DHT22;6807;48.682;9.032;2023-03-25T11:50:37;14.30;99.90
13470;DHT22;6807;48.682;9.032;2023-03-25T12:00:19;15.20;99.90
13470;DHT22;6807;48.682;9.032;2023-03-25T12:03:32;15.00;1.00
13470;DHT22;6807;48.682;9.032;2023-03-25T12:09:55;15.60;99.90
13470;DHT22;6807;48.682;9.032;2023-03-25T12:12:44;15.00;99.90
13470;DHT22;6807;48.682;9.032;2023-03-25T12:29:09;15.40;1.00
13470;DHT22;6807;48.682;9.032;2023-03-25T12:31:47;13.50;99.90
13470;DHT22;6807;48.682;9.032;2023-03-25T12:34:23;12.70;99.90
13470;DHT22;6807;48.682;9.032;2023-03-25T12:37:00;11.70;99.90
13470;DHT22;6807;48.682;9.032;2023-03-25T12:39:43;10.80;99.90
13470;DHT22;6807;48.682;9.032;2023-03-25T12:42:29;10.20;99.90
13470;DHT22;6807;48.682;9.032;2023-03-25T12:55:23;9.90;1.00
13470;DHT22;6807;48.682;9.032;2023-03-25T13:25:49;10.00;1.00
13470;DHT22;6807;48.682;9.032;2023-03-25T13:45:53;14.50;1.00
13470;DHT22;6807;48.682;9.032;2023-03-25T13:58:48;14.00;99.90
13470;DHT22;6807;48.682;9.032;2023-03-25T14:15:06;11.80;1.00
13470;DHT22;6807;48.682;9.032;2023-03-25T14:20:05;13.60;1.00
13470;DHT22;6807;48.682;9.032;2023-03-25T14:22:40;13.20;99.90
13470;DHT22;6807;48.682;9.032;2023-03-25T14:25:18;12.60;1.00
13470;DHT22;6807;48.682;9.032;2023-03-25T14:27:48;9.80;1.00
13470;DHT22;6807;48.682;9.032;2023-03-25T14:30:20;13.10;99.90
13470;DHT22;6807;48.682;9.032;2023-03-25T14:38:52;14.10;99.90
13470;DHT22;6807;48.682;9.032;2023-03-25T14:41:53;14.70;99.90
13470;DHT22;6807;48.682;9.032;2023-03-25T14:49:46;14.60;48.20
13470;DHT22;6807;48.682;9.032;2023-03-25T14:52:29;14.40;99.90
13470;DHT22;6807;48.682;9.032;2023-03-25T14:55:00;14.80;99.90
13470;DHT22;6807;48.682;9.032;2023-03-25T14:57:39;16.80;99.90
13470;DHT22;6807;48.682;9.032;2023-03-25T15:00:08;15.90;99.90
13470;DHT22;6807;48.682;9.032;2023-03-25T15:02:39;14.90;99.90
13470;DHT22;6807;48.682;9.032;2023-03-25T15:05:15;14.60;99.90
13470;DHT22;6807;48.682;9.032;2023-03-25T15:07:45;13.70;1.00
13470;DHT22;6807;48.682;9.032;2023-03-25T15:12:58;12.50;99.90
13470;DHT22;6807;48.682;9.032;2023-03-25T15:23:38;13.90;99.90
13470;DHT22;6807;48.682;9.032;2023-03-25T15:26:12;14.30;99.90
13470;DHT22;6807;48.682;9.032;2023-03-25T15:28:58;14.40;99.90
13470;DHT22;6807;48.682;9.032;2023-03-25T15:31:44;13.40;1.00
13470;DHT22;6807;48.682;9.032;2023-03-25T15:34:35;13.40;99.90
13470;DHT22;6807;48.682;9.032;2023-03-25T15:40:22;13.10;99.90
13470;DHT22;6807;48.682;9.032;2023-03-25T15:46:36;13.10;99.90
13470;DHT22;6807;48.682;9.032;2023-03-25T15:49:21;13.90;1.00
13470;DHT22;6807;48.682;9.032;2023-03-25T15:52:05;13.60;99.90
13470;DHT22;6807;48.682;9.032;2023-03-25T15:54:38;13.50;1.00
13470;DHT22;6807;48.682;9.032;2023-03-25T15:57:16;13.20;1.00
13470;DHT22;6807;48.682;9.032;2023-03-25T15:59:50;13.60;1.00
13470;DHT22;6807;48.682;9.032;2023-03-25T16:04:52;12.90;99.90
13470;DHT22;6807;48.682;9.032;2023-03-25T16:07:22;13.30;99.90
13470;DHT22;6807;48.682;9.032;2023-03-25T16:09:53;13.20;1.00
13470;DHT22;6807;48.682;9.032;2023-03-25T16:12:22;12.90;99.90
13470;DHT22;6807;48.682;9.032;2023-03-25T16:14:51;12.10;99.90
13470;DHT22;6807;48.682;9.032;2023-03-25T16:17:19;12.10;99.90
13470;DHT22;6807;48.682;9.032;2023-03-25T16:19:51;12.10;99.90
13470;DHT22;6807;48.682;9.032;2023-03-25T16:24:49;12.00;99.90
13470;DHT22;6807;48.682;9.032;2023-03-25T16:27:22;12.00;99.90
13470;DHT22;6807;48.682;9.032;2023-03-25T16:29:51;12.00;99.90
13470;DHT22;6807;48.682;9.032;2023-03-25T16:32:21;12.00;99.90
13470;DHT22;6807;48.682;9.032;2023-03-25T16:52:16;11.50;99.90
13470;DHT22;6807;48.682;9.032;2023-03-25T16:57:33;11.50;99.90
13470;DHT22;6807;48.682;9.032;2023-03-25T17:00:04;11.30;99.90
13470;DHT22;6807;48.682;9.032;2023-03-25T17:02:42;11.10;99.90
13470;DHT22;6807;48.682;9.032;2023-03-25T17:05:16;11.00;99.90
13470;DHT22;6807;48.682;9.032;2023-03-25T17:07:45;10.90;99.90
13470;DHT22;6807;48.682;9.032;2023-03-25T17:10:18;11.00;99.90
13470;DHT22;6807;48.682;9.032;2023-03-25T17:12:53;11.10;99.90
13470;DHT22;6807;48.682;9.032;2023-03-25T17:15:22;10.80;99.90
13470;DHT22;6807;48.682;9.032;2023-03-25T17:17:51;10.50;99.90
13470;DHT22;6807;48.682;9.032;2023-03-25T17:20:21;10.20;99.90
13470;DHT22;6807;48.682;9.032;2023-03-25T17:22:58;10.10;99.90
13470;DHT22;6807;48.682;9.032;2023-03-25T17:25:28;10.20;99.90
13470;DHT22;6807;48.682;9.032;2023-03-25T17:28:03;10.00;99.90
13470;DHT22;6807;48.682;9.032;2023-03-25T17:30:37;9.90;99.90
13470;DHT22;6807;48.682;9.032;2023-03-25T17:50:52;9.40;1.00
13470;DHT22;6807;48.682;9.032;2023-03-25T18:20:28;8.60;1.00
13470;DHT22;6807;48.682;9.032;2023-03-25T18:25:24;8.50;1.00
13470;DHT22;6807;48.682;9.032;2023-03-25T18:27:55;8.40;1.00
13470;DHT22;6807;48.682;9.032;2023-03-25T18:30:25;8.40;99.90
13470;DHT22;6807;48.682;9.032;2023-03-25T18:40:17;7.90;1.00
13470;DHT22;6807;48.682;9.032;2023-03-25T18:42:45;7.70;99.90
13470;DHT22;6807;48.682;9.032;2023-03-25T18:45:14;7.50;99.90
13470;DHT22;6807;48.682;9.032;2023-03-25T18:50:22;7.60;1.00
13470;DHT22;6807;48.682;9.032;2023-03-25T18:52:51;7.50;1.00
13470;DHT22;6807;48.682;9.032;2023-03-25T18:55:18;7.40;99.90
13470;DHT22;6807;48.682;9.032;2023-03-25T18:57:45;7.40;99.90
13470;DHT22;6807;48.682;9.032;2023-03-25T19:00:24;7.30;1.00
13470;DHT22;6807;48.682;9.032;2023-03-25T19:02:52;7.20;99.90
13470;DHT22;6807;48.682;9.032;2023-03-25T19:05:20;7.20;1.00
13470;DHT22;6807;48.682;9.032;2023-03-25T19:07:47;7.20;98.90
13470;DHT22;6807;48.682;9.032;2023-03-25T19:10:16;7.00;23.80
13470;DHT22;6807;48.682;9.032;2023-03-25T19:12:45;6.90;99.90
13470;DHT22;6807;48.682;9.032;2023-03-25T19:15:14;6.90;62.20
13470;DHT22;6807;48.682;9.032;2023-03-25T19:17:43;6.90;81.20
13470;DHT22;6807;48.682;9.032;2023-03-25T19:20:16;6.90;99.90
13470;DHT22;6807;48.682;9.032;2023-03-25T19:22:43;6.80;99.90
13470;DHT22;6807;48.682;9.032;2023-03-25T19:27:38;6.90;99.90
13470;DHT22;6807;48.682;9.032;2023-03-25T19:30:07;7.00;99.90
13470;DHT22;6807;48.682;9.032;2023-03-25T19:35:05;7.20;99.90
13470;DHT22;6807;48.682;9.032;2023-03-25T19:40:00;7.20;1.00
13470;DHT22;6807;48.682;9.032;2023-03-25T19:42:33;7.20;1.00
13470;DHT22;6807;48.682;9.032;2023-03-25T19:52:23;7.00;99.90
13470;DHT22;6807;48.682;9.032;2023-03-25T19:57:17;6.70;1.00
13470;DHT22;6807;48.682;9.032;2023-03-25T19:59:44;6.50;1.00
13470;DHT22;6807;48.682;9.032;2023-03-25T20:02:11;6.40;1.00
13470;DHT22;6807;48.682;9.032;2023-03-25T20:09:35;6.40;99.90
13470;DHT22;6807;48.682;9.032;2023-03-25T20:14:30;7.10;99.90
13470;DHT22;6807;48.682;9.032;2023-03-25T20:19:24;6.80;99.90
13470;DHT22;6807;48.682;9.032;2023-03-25T20:21:54;6.70;99.90
13470;DHT22;6807;48.682;9.032;2023-03-25T20:26:50;6.60;99.90
13470;DHT22;6807;48.682;9.032;2023-03-25T20:34:13;6.50;1.00
13470;DHT22;6807;48.682;9.032;2023-03-25T20:36:41;6.20;1.00
13470;DHT22;6807;48.682;9.032;2023-03-25T20:39:08;6.20;1.00
13470;DHT22;6807;48.682;9.032;2023-03-25T20:41:36;6.20;1.00
13470;DHT22;6807;48.682;9.032;2023-03-25T20:44:04;6.00;1.00
13470;DHT22;6807;48.682;9.032;2023-03-25T20:46:31;6.00;1.00
13470;DHT22;6807;48.682;9.032;2023-03-25T20:58:51;5.80;1.00
13470;DHT22;6807;48.682;9.032;2023-03-25T21:01:20;5.60;1.00
13470;DHT22;6807;48.682;9.032;2023-03-25T21:03:48;6.00;99.80
13470;DHT22;6807;48.682;9.032;2023-03-25T21:06:16;6.30;1.00
13470;DHT22;6807;48.682;9.032;2023-03-25T21:08:43;6.40;91.80
13470;DHT22;6807;48.682;9.032;2023-03-25T21:11:12;6.40;59.80
13470;DHT22;6807;48.682;9.032;2023-03-25T21:16:07;6.40;76.30
13470;DHT22;6807;48.682;9.032;2023-03-25T21:18:36;6.40;1.00
13470;DHT22;6807;48.682;9.032;2023-03-25T21:21:03;6.50;1.00
13470;DHT22;6807;48.682;9.032;2023-03-25T21:25:59;6.60;40.10
13470;DHT22;6807;48.682;9.032;2023-03-25T21:28:27;6.60;1.00
13470;DHT22;6807;48.682;9.032;2023-03-25T21:31:01;6.60;1.00
13470;DHT22;6807;48.682;9.032;2023-03-25T21:33:29;6.70;32.90
13470;DHT22;6807;48.682;9.032;2023-03-25T21:35:59;6.60;1.00
13470;DHT22;6807;48.682;9.032;2023-03-25T21:38:27;6.70;1.00
13470;DHT22;6807;48.682;9.032;2023-03-25T21:40:55;6.60;1.00
13470;DHT22;6807;48.682;9.032;2023-03-25T21:43:22;6.40;22.60
13470;DHT22;6807;48.682;9.032;2023-03-25T21:45:49;6.40;1.00
13470;DHT22;6807;48.682;9.032;2023-03-25T21:48:16;6.60;54.20
13470;DHT22;6807;48.682;9.032;2023-03-25T21:53:13;6.20;1.00
13470;DHT22;6807;48.682;9.032;2023-03-25T21:55:53;6.10;1.00
13470;DHT22;6807;48.682;9.032;2023-03-25T21:58:25;6.00;75.00
13470;DHT22;6807;48.682;9.032;2023-03-25T22:00:57;6.00;1.00
13470;DHT22;6807;48.682;9.032;2023-03-25T22:03:26;7.50;32.70
13470;DHT22;6807;48.682;9.032;2023-03-25T22:08:23;6.00;22.20
13470;DHT22;6807;48.682;9.032;2023-03-25T22:13:17;6.00;99.90
13470;DHT22;6807;48.682;9.032;2023-03-25T22:15:44;6.20;99.90
13470;DHT22;6807;48.682;9.032;2023-03-25T22:18:11;5.90;70.40
13470;DHT22;6807;48.682;9.032;2023-03-25T22:25:36;5.80;76.30
13470;DHT22;6807;48.682;9.032;2023-03-25T22:35:26;5.90;99.90
13470;DHT22;6807;48.682;9.032;2023-03-25T22:42:49;6.00;99.90
13470;DHT22;6807;48.682;9.032;2023-03-25T22:45:17;6.20;99.90
13470;DHT22;6807;48.682;9.032;2023-03-25T22:47:43;6.10;99.90
13470;DHT22;6807;48.682;9.032;2023-03-25T22:52:39;6.10;99.90
13470;DHT22;6807;48.682;9.032;2023-03-25T22:55:06;6.10;99.90
13470;DHT22;6807;48.682;9.032;2023-03-25T23:00:06;6.10;99.90
13470;DHT22;6807;48.682;9.032;2023-03-25T23:05:05;5.80;99.90
13470;DHT22;6807;48.682;9.032;2023-03-25T23:09:59;5.60;1.00
13470;DHT22;6807;48.682;9.032;2023-03-25T23:14:54;5.80;99.90
13470;DHT22;6807;48.682;9.032;2023-03-25T23:17:25;5.70;1.00
13470;DHT22;6807;48.682;9.032;2023-03-25T23:22:20;5.70;1.00
13470;DHT22;6807;48.682;9.032;2023-03-25T23:27:17;5.50;99.90
13470;DHT22;6807;48.682;9.032;2023-03-25T23:29:43;5.50;1.00
13470;DHT22;6807;48.682;9.032;2023-03-25T23:34:40;5.50;99.90
13470;DHT22;6807;48.682;9.032;2023-03-25T23:39:34;5.30;1.00
13470;DHT22;6807;48.682;9.032;2023-03-25T23:44:29;5.20;1.00
13470;DHT22;6807;48.682;9.032;2023-03-25T23:46:56;5.10;1.00
13470;DHT22;6807;48.682;9.032;2023-03-25T23:51:58;5.20;1.00
